Terminal Aerodrome Forecast
Issued by NWS Wilmington, OH

Current Version | Previous Version | Text Only | Print | Product List | Glossary Off
Versions: 1 2 3 4 5 6 7 8 9 10 11 12 13 14 15 16 17 18 19 20 21 22 23 24 25 26

000
FTUS41 KILN 230900 AAA
TAFILN
TAF AMD
KILN 230915Z 2309/2406 25004KT P6SM SCT080 BKN200
     FM231100 26008KT P6SM VCTS BKN050CB
      TEMPO 2311/2313 34016G25KT 5SM -TSRA BR OVC040CB
     FM231600 29010KT 5SM -SHRA BR VCTS OVC050CB
     FM232000 32010KT P6SM BKN060
     FM240000 01009KT P6SM BKN100=

USA.gov is the U.S. government's official web portal to all federal, state and local government web resources and services.